sensor_id;sensor_type;location;lat;lon;timestamp;temperature;humidity
51021;DHT22;38907;45.562;8.856;2022-12-18T00:04:19;7.10;99.90
51021;DHT22;38907;45.562;8.856;2022-12-18T00:09:23;7.10;99.90
51021;DHT22;38907;45.562;8.856;2022-12-18T00:14:25;7.10;99.90
51021;DHT22;38907;45.562;8.856;2022-12-18T00:19:27;7.10;99.90
51021;DHT22;38907;45.562;8.856;2022-12-18T00:24:30;7.20;99.90
51021;DHT22;38907;45.562;8.856;2022-12-18T00:29:32;7.10;99.90
51021;DHT22;38907;45.562;8.856;2022-12-18T00:34:34;7.20;99.90
51021;DHT22;38907;45.562;8.856;2022-12-18T00:39:37;7.20;99.90
51021;DHT22;38907;45.562;8.856;2022-12-18T00:44:39;7.00;99.90
51021;DHT22;38907;45.562;8.856;2022-12-18T00:49:41;6.80;99.90
51021;DHT22;38907;45.562;8.856;2022-12-18T00:54:44;6.80;99.90
51021;DHT22;38907;45.562;8.856;2022-12-18T00:59:46;6.80;99.90
51021;DHT22;38907;45.562;8.856;2022-12-18T01:04:48;6.80;99.90
51021;DHT22;38907;45.562;8.856;2022-12-18T01:09:51;6.80;99.90
51021;DHT22;38907;45.562;8.856;2022-12-18T01:14:53;6.80;99.90
51021;DHT22;38907;45.562;8.856;2022-12-18T01:19:55;6.90;99.90
51021;DHT22;38907;45.562;8.856;2022-12-18T01:24:58;6.90;99.90
51021;DHT22;38907;45.562;8.856;2022-12-18T01:30:00;6.90;99.90
51021;DHT22;38907;45.562;8.856;2022-12-18T01:35:02;6.70;99.90
51021;DHT22;38907;45.562;8.856;2022-12-18T01:40:07;6.70;99.90
51021;DHT22;38907;45.562;8.856;2022-12-18T01:45:23;6.70;99.90
51021;DHT22;38907;45.562;8.856;2022-12-18T01:50:30;6.70;99.90
51021;DHT22;38907;45.562;8.856;2022-12-18T01:55:39;6.70;99.90
51021;DHT22;38907;45.562;8.856;2022-12-18T02:00:44;6.80;99.90
51021;DHT22;38907;45.562;8.856;2022-12-18T02:05:48;6.80;99.90
51021;DHT22;38907;45.562;8.856;2022-12-18T02:11:03;6.90;99.90
51021;DHT22;38907;45.562;8.856;2022-12-18T02:16:13;6.90;99.90
51021;DHT22;38907;45.562;8.856;2022-12-18T02:21:27;6.90;99.90
51021;DHT22;38907;45.562;8.856;2022-12-18T02:26:36;7.00;99.90
51021;DHT22;38907;45.562;8.856;2022-12-18T02:31:42;7.10;99.90
51021;DHT22;38907;45.562;8.856;2022-12-18T02:36:46;7.00;99.90
51021;DHT22;38907;45.562;8.856;2022-12-18T02:41:51;7.10;99.90
51021;DHT22;38907;45.562;8.856;2022-12-18T02:46:54;7.10;99.90
51021;DHT22;38907;45.562;8.856;2022-12-18T02:52:01;7.00;99.90
51021;DHT22;38907;45.562;8.856;2022-12-18T02:57:14;7.00;99.90
51021;DHT22;38907;45.562;8.856;2022-12-18T03:02:21;7.00;99.90
51021;DHT22;38907;45.562;8.856;2022-12-18T03:07:27;7.00;99.90
51021;DHT22;38907;45.562;8.856;2022-12-18T03:12:38;6.90;99.90
51021;DHT22;38907;45.562;8.856;2022-12-18T03:17:44;6.90;99.90
51021;DHT22;38907;45.562;8.856;2022-12-18T03:22:50;6.80;99.90
51021;DHT22;38907;45.562;8.856;2022-12-18T03:27:56;6.80;99.90
51021;DHT22;38907;45.562;8.856;2022-12-18T03:33:04;6.80;99.90
51021;DHT22;38907;45.562;8.856;2022-12-18T03:38:07;6.70;99.90
51021;DHT22;38907;45.562;8.856;2022-12-18T03:43:18;6.60;99.90
51021;DHT22;38907;45.562;8.856;2022-12-18T03:48:28;6.60;99.90
51021;DHT22;38907;45.562;8.856;2022-12-18T03:53:36;6.70;99.90
51021;DHT22;38907;45.562;8.856;2022-12-18T03:58:42;6.60;99.90
51021;DHT22;38907;45.562;8.856;2022-12-18T04:03:46;6.60;99.90
51021;DHT22;38907;45.562;8.856;2022-12-18T04:08:50;6.50;99.90
51021;DHT22;38907;45.562;8.856;2022-12-18T04:13:57;6.50;99.90
51021;DHT22;38907;45.562;8.856;2022-12-18T04:18:59;6.50;99.90
51021;DHT22;38907;45.562;8.856;2022-12-18T04:24:01;6.60;99.90
51021;DHT22;38907;45.562;8.856;2022-12-18T04:29:04;6.70;99.90
51021;DHT22;38907;45.562;8.856;2022-12-18T04:34:06;6.70;99.90
51021;DHT22;38907;45.562;8.856;2022-12-18T04:39:08;6.70;99.90
51021;DHT22;38907;45.562;8.856;2022-12-18T04:44:11;6.70;99.90
51021;DHT22;38907;45.562;8.856;2022-12-18T04:49:13;6.70;99.90
51021;DHT22;38907;45.562;8.856;2022-12-18T04:54:15;6.70;99.90
51021;DHT22;38907;45.562;8.856;2022-12-18T04:59:18;6.60;99.90
51021;DHT22;38907;45.562;8.856;2022-12-18T05:04:20;6.60;99.90
51021;DHT22;38907;45.562;8.856;2022-12-18T05:09:23;6.70;99.90
51021;DHT22;38907;45.562;8.856;2022-12-18T05:14:26;6.80;99.90
51021;DHT22;38907;45.562;8.856;2022-12-18T05:19:29;6.70;99.90
51021;DHT22;38907;45.562;8.856;2022-12-18T05:24:31;6.70;99.90
51021;DHT22;38907;45.562;8.856;2022-12-18T05:29:34;6.80;99.90
51021;DHT22;38907;45.562;8.856;2022-12-18T05:34:36;6.80;99.90
51021;DHT22;38907;45.562;8.856;2022-12-18T05:39:38;6.90;99.90
51021;DHT22;38907;45.562;8.856;2022-12-18T05:44:41;6.90;99.90
51021;DHT22;38907;45.562;8.856;2022-12-18T05:49:44;6.90;99.90
51021;DHT22;38907;45.562;8.856;2022-12-18T05:54:46;6.80;99.90
51021;DHT22;38907;45.562;8.856;2022-12-18T05:59:49;6.80;99.90
51021;DHT22;38907;45.562;8.856;2022-12-18T06:04:51;6.90;99.90
51021;DHT22;38907;45.562;8.856;2022-12-18T06:09:53;6.80;99.90
51021;DHT22;38907;45.562;8.856;2022-12-18T06:14:58;6.80;99.90
51021;DHT22;38907;45.562;8.856;2022-12-18T06:20:00;6.80;99.90
51021;DHT22;38907;45.562;8.856;2022-12-18T06:25:03;6.80;99.90
51021;DHT22;38907;45.562;8.856;2022-12-18T06:30:08;6.70;99.90
51021;DHT22;38907;45.562;8.856;2022-12-18T06:35:10;6.70;99.90
51021;DHT22;38907;45.562;8.856;2022-12-18T06:40:13;6.70;99.90
51021;DHT22;38907;45.562;8.856;2022-12-18T06:45:17;6.60;99.90
51021;DHT22;38907;45.562;8.856;2022-12-18T06:50:19;6.60;99.90
51021;DHT22;38907;45.562;8.856;2022-12-18T06:55:21;6.50;99.90
51021;DHT22;38907;45.562;8.856;2022-12-18T07:00:24;6.50;99.90
51021;DHT22;38907;45.562;8.856;2022-12-18T07:05:26;6.50;99.90
51021;DHT22;38907;45.562;8.856;2022-12-18T07:10:28;6.40;99.90
51021;DHT22;38907;45.562;8.856;2022-12-18T07:15:31;6.50;99.90
51021;DHT22;38907;45.562;8.856;2022-12-18T07:20:33;6.40;99.90
51021;DHT22;38907;45.562;8.856;2022-12-18T07:25:35;6.40;99.90
51021;DHT22;38907;45.562;8.856;2022-12-18T07:30:38;6.40;99.90
51021;DHT22;38907;45.562;8.856;2022-12-18T07:35:40;6.50;99.90
51021;DHT22;38907;45.562;8.856;2022-12-18T07:40:42;6.50;99.90
51021;DHT22;38907;45.562;8.856;2022-12-18T07:45:49;6.50;99.90
51021;DHT22;38907;45.562;8.856;2022-12-18T07:50:51;6.60;99.90
51021;DHT22;38907;45.562;8.856;2022-12-18T07:55:55;6.50;99.90
51021;DHT22;38907;45.562;8.856;2022-12-18T08:01:04;6.60;99.90
51021;DHT22;38907;45.562;8.856;2022-12-18T08:06:08;6.60;99.90
51021;DHT22;38907;45.562;8.856;2022-12-18T08:11:10;6.70;99.90
51021;DHT22;38907;45.562;8.856;2022-12-18T08:16:14;6.70;99.90
51021;DHT22;38907;45.562;8.856;2022-12-18T08:21:17;6.70;99.90
51021;DHT22;38907;45.562;8.856;2022-12-18T08:26:22;6.70;99.90
51021;DHT22;38907;45.562;8.856;2022-12-18T08:31:26;6.60;99.90
51021;DHT22;38907;45.562;8.856;2022-12-18T08:36:28;6.60;99.90
51021;DHT22;38907;45.562;8.856;2022-12-18T08:41:30;6.60;99.90
51021;DHT22;38907;45.562;8.856;2022-12-18T08:46:35;6.70;99.90
51021;DHT22;38907;45.562;8.856;2022-12-18T08:51:38;6.70;99.90
51021;DHT22;38907;45.562;8.856;2022-12-18T08:56:40;6.70;99.90
51021;DHT22;38907;45.562;8.856;2022-12-18T09:01:43;6.80;99.90
51021;DHT22;38907;45.562;8.856;2022-12-18T09:06:46;6.80;99.90
51021;DHT22;38907;45.562;8.856;2022-12-18T09:11:48;6.80;99.90
51021;DHT22;38907;45.562;8.856;2022-12-18T09:16:51;6.80;99.90
51021;DHT22;38907;45.562;8.856;2022-12-18T09:21:53;7.00;99.90
51021;DHT22;38907;45.562;8.856;2022-12-18T09:26:55;7.00;99.90
51021;DHT22;38907;45.562;8.856;2022-12-18T09:31:58;7.00;99.90
51021;DHT22;38907;45.562;8.856;2022-12-18T09:37:00;7.10;99.90
51021;DHT22;38907;45.562;8.856;2022-12-18T09:42:02;7.10;99.90
51021;DHT22;38907;45.562;8.856;2022-12-18T09:47:10;7.20;99.90
51021;DHT22;38907;45.562;8.856;2022-12-18T09:52:17;7.20;99.90
51021;DHT22;38907;45.562;8.856;2022-12-18T09:57:23;7.30;99.90
51021;DHT22;38907;45.562;8.856;2022-12-18T10:02:30;7.30;99.90
51021;DHT22;38907;45.562;8.856;2022-12-18T10:07:41;7.30;99.90
51021;DHT22;38907;45.562;8.856;2022-12-18T10:12:50;7.40;99.90
51021;DHT22;38907;45.562;8.856;2022-12-18T10:17:58;7.40;99.90
51021;DHT22;38907;45.562;8.856;2022-12-18T10:23:10;7.40;99.90
51021;DHT22;38907;45.562;8.856;2022-12-18T10:28:15;7.40;99.90
51021;DHT22;38907;45.562;8.856;2022-12-18T10:33:20;7.50;99.90
51021;DHT22;38907;45.562;8.856;2022-12-18T10:38:24;7.50;99.90
51021;DHT22;38907;45.562;8.856;2022-12-18T10:43:28;7.40;99.90
51021;DHT22;38907;45.562;8.856;2022-12-18T10:48:33;7.40;99.90
51021;DHT22;38907;45.562;8.856;2022-12-18T10:53:37;7.50;99.90
51021;DHT22;38907;45.562;8.856;2022-12-18T10:58:39;7.40;99.90
51021;DHT22;38907;45.562;8.856;2022-12-18T11:03:44;7.40;99.90
51021;DHT22;38907;45.562;8.856;2022-12-18T11:08:58;7.50;99.90
51021;DHT22;38907;45.562;8.856;2022-12-18T11:14:03;7.50;99.90
51021;DHT22;38907;45.562;8.856;2022-12-18T11:19:21;7.40;99.90
51021;DHT22;38907;45.562;8.856;2022-12-18T11:24:29;7.50;99.90
51021;DHT22;38907;45.562;8.856;2022-12-18T11:29:34;7.50;99.90
51021;DHT22;38907;45.562;8.856;2022-12-18T11:34:38;7.50;99.90
51021;DHT22;38907;45.562;8.856;2022-12-18T11:39:44;7.40;99.90
51021;DHT22;38907;45.562;8.856;2022-12-18T11:44:49;7.50;99.90
51021;DHT22;38907;45.562;8.856;2022-12-18T11:49:56;7.70;99.90
51021;DHT22;38907;45.562;8.856;2022-12-18T11:55:04;7.80;99.90
51021;DHT22;38907;45.562;8.856;2022-12-18T12:00:13;7.90;99.90
51021;DHT22;38907;45.562;8.856;2022-12-18T12:23:37;7.90;99.90
51021;DHT22;38907;45.562;8.856;2022-12-18T12:28:59;7.80;99.90
51021;DHT22;38907;45.562;8.856;2022-12-18T12:34:09;7.90;99.90
51021;DHT22;38907;45.562;8.856;2022-12-18T12:39:18;7.90;99.90
51021;DHT22;38907;45.562;8.856;2022-12-18T12:44:25;8.10;99.90
51021;DHT22;38907;45.562;8.856;2022-12-18T12:49:32;8.10;99.90
51021;DHT22;38907;45.562;8.856;2022-12-18T12:54:37;8.30;99.90
51021;DHT22;38907;45.562;8.856;2022-12-18T12:59:46;8.30;99.90
51021;DHT22;38907;45.562;8.856;2022-12-18T13:04:54;8.30;99.90
51021;DHT22;38907;45.562;8.856;2022-12-18T13:10:25;8.30;99.90
51021;DHT22;38907;45.562;8.856;2022-12-18T13:15:34;8.30;99.90
51021;DHT22;38907;45.562;8.856;2022-12-18T13:20:40;8.20;99.90
51021;DHT22;38907;45.562;8.856;2022-12-18T13:25:44;8.10;99.90
51021;DHT22;38907;45.562;8.856;2022-12-18T13:30:51;8.00;99.90
51021;DHT22;38907;45.562;8.856;2022-12-18T13:36:01;7.90;99.90
51021;DHT22;38907;45.562;8.856;2022-12-18T13:41:23;7.80;99.90
51021;DHT22;38907;45.562;8.856;2022-12-18T13:46:28;7.90;99.90
51021;DHT22;38907;45.562;8.856;2022-12-18T13:51:32;7.80;99.90
51021;DHT22;38907;45.562;8.856;2022-12-18T13:56:44;7.90;99.90
51021;DHT22;38907;45.562;8.856;2022-12-18T14:01:49;8.00;99.90
51021;DHT22;38907;45.562;8.856;2022-12-18T14:06:55;8.10;99.90
51021;DHT22;38907;45.562;8.856;2022-12-18T14:11:59;8.00;99.90
51021;DHT22;38907;45.562;8.856;2022-12-18T14:17:20;7.90;99.90
51021;DHT22;38907;45.562;8.856;2022-12-18T14:22:24;7.80;99.90
51021;DHT22;38907;45.562;8.856;2022-12-18T14:27:29;7.70;99.90
51021;DHT22;38907;45.562;8.856;2022-12-18T14:32:31;7.60;99.90
51021;DHT22;38907;45.562;8.856;2022-12-18T14:37:33;7.50;99.90
51021;DHT22;38907;45.562;8.856;2022-12-18T14:42:36;7.50;99.90
51021;DHT22;38907;45.562;8.856;2022-12-18T14:47:38;7.50;99.90
51021;DHT22;38907;45.562;8.856;2022-12-18T14:52:44;7.40;99.90
51021;DHT22;38907;45.562;8.856;2022-12-18T14:57:49;7.40;99.90
51021;DHT22;38907;45.562;8.856;2022-12-18T15:02:54;7.30;99.90
51021;DHT22;38907;45.562;8.856;2022-12-18T15:07:57;7.30;99.90
51021;DHT22;38907;45.562;8.856;2022-12-18T15:13:15;7.30;99.90
51021;DHT22;38907;45.562;8.856;2022-12-18T15:18:19;7.20;99.90
51021;DHT22;38907;45.562;8.856;2022-12-18T15:23:24;7.10;99.90
51021;DHT22;38907;45.562;8.856;2022-12-18T15:28:33;7.00;99.90
51021;DHT22;38907;45.562;8.856;2022-12-18T15:33:38;6.90;99.90
51021;DHT22;38907;45.562;8.856;2022-12-18T15:38:40;6.90;99.90
51021;DHT22;38907;45.562;8.856;2022-12-18T15:43:44;6.90;99.90
51021;DHT22;38907;45.562;8.856;2022-12-18T15:48:48;6.70;99.90
51021;DHT22;38907;45.562;8.856;2022-12-18T15:53:51;6.70;99.90
51021;DHT22;38907;45.562;8.856;2022-12-18T15:58:56;6.60;99.90
51021;DHT22;38907;45.562;8.856;2022-12-18T16:03:58;6.50;99.90
51021;DHT22;38907;45.562;8.856;2022-12-18T16:09:00;6.40;99.90
51021;DHT22;38907;45.562;8.856;2022-12-18T16:14:04;6.50;99.90
51021;DHT22;38907;45.562;8.856;2022-12-18T16:19:06;6.40;99.90
51021;DHT22;38907;45.562;8.856;2022-12-18T16:24:14;6.50;99.90
51021;DHT22;38907;45.562;8.856;2022-12-18T16:29:18;6.50;99.90
51021;DHT22;38907;45.562;8.856;2022-12-18T16:34:26;6.50;99.90
51021;DHT22;38907;45.562;8.856;2022-12-18T16:39:28;6.50;99.90
51021;DHT22;38907;45.562;8.856;2022-12-18T16:44:32;6.50;99.90
51021;DHT22;38907;45.562;8.856;2022-12-18T16:49:34;6.50;99.90
51021;DHT22;38907;45.562;8.856;2022-12-18T16:54:36;6.40;99.90
51021;DHT22;38907;45.562;8.856;2022-12-18T16:59:40;6.40;99.90
51021;DHT22;38907;45.562;8.856;2022-12-18T17:04:41;6.50;99.90
51021;DHT22;38907;45.562;8.856;2022-12-18T17:09:43;6.30;99.90
51021;DHT22;38907;45.562;8.856;2022-12-18T17:14:47;6.50;99.90
51021;DHT22;38907;45.562;8.856;2022-12-18T17:19:50;6.50;99.90
51021;DHT22;38907;45.562;8.856;2022-12-18T17:24:55;6.50;99.90
51021;DHT22;38907;45.562;8.856;2022-12-18T17:30:02;6.50;99.90
51021;DHT22;38907;45.562;8.856;2022-12-18T17:35:04;6.40;99.90
51021;DHT22;38907;45.562;8.856;2022-12-18T17:40:07;6.50;99.90
51021;DHT22;38907;45.562;8.856;2022-12-18T17:45:11;6.50;99.90
51021;DHT22;38907;45.562;8.856;2022-12-18T17:50:14;6.40;99.90
51021;DHT22;38907;45.562;8.856;2022-12-18T17:55:16;6.40;99.90
51021;DHT22;38907;45.562;8.856;2022-12-18T18:00:20;6.40;99.90
51021;DHT22;38907;45.562;8.856;2022-12-18T18:05:22;6.30;99.90
51021;DHT22;38907;45.562;8.856;2022-12-18T18:10:24;6.40;99.90
51021;DHT22;38907;45.562;8.856;2022-12-18T18:15:27;6.40;99.90
51021;DHT22;38907;45.562;8.856;2022-12-18T18:20:29;6.50;99.90
51021;DHT22;38907;45.562;8.856;2022-12-18T18:25:35;6.40;99.90
51021;DHT22;38907;45.562;8.856;2022-12-18T18:30:38;6.30;99.90
51021;DHT22;38907;45.562;8.856;2022-12-18T18:35:41;6.30;99.90
51021;DHT22;38907;45.562;8.856;2022-12-18T18:40:43;6.10;99.90
51021;DHT22;38907;45.562;8.856;2022-12-18T18:45:47;6.10;99.90
51021;DHT22;38907;45.562;8.856;2022-12-18T18:50:55;6.20;99.90
51021;DHT22;38907;45.562;8.856;2022-12-18T18:55:57;6.10;99.90
51021;DHT22;38907;45.562;8.856;2022-12-18T19:01:03;6.10;99.90
51021;DHT22;38907;45.562;8.856;2022-12-18T19:06:06;5.90;99.90
51021;DHT22;38907;45.562;8.856;2022-12-18T19:11:09;6.00;99.90
51021;DHT22;38907;45.562;8.856;2022-12-18T19:16:33;5.70;99.90
51021;DHT22;38907;45.562;8.856;2022-12-18T19:21:35;5.70;99.90
51021;DHT22;38907;45.562;8.856;2022-12-18T19:26:37;5.60;99.90
51021;DHT22;38907;45.562;8.856;2022-12-18T19:31:41;5.50;99.90
51021;DHT22;38907;45.562;8.856;2022-12-18T19:36:42;5.70;99.90
51021;DHT22;38907;45.562;8.856;2022-12-18T19:41:45;5.60;99.90
51021;DHT22;38907;45.562;8.856;2022-12-18T19:46:50;5.50;99.90
51021;DHT22;38907;45.562;8.856;2022-12-18T19:51:52;5.30;99.90
51021;DHT22;38907;45.562;8.856;2022-12-18T19:56:54;5.10;99.90
51021;DHT22;38907;45.562;8.856;2022-12-18T20:01:58;5.00;99.90
51021;DHT22;38907;45.562;8.856;2022-12-18T20:07:00;5.10;99.90
51021;DHT22;38907;45.562;8.856;2022-12-18T20:12:03;5.10;99.90
51021;DHT22;38907;45.562;8.856;2022-12-18T20:17:06;5.20;99.90
51021;DHT22;38907;45.562;8.856;2022-12-18T20:22:08;5.10;99.90
51021;DHT22;38907;45.562;8.856;2022-12-18T20:27:11;5.30;99.90
51021;DHT22;38907;45.562;8.856;2022-12-18T20:32:14;5.40;99.90
51021;DHT22;38907;45.562;8.856;2022-12-18T20:37:16;5.50;99.90
51021;DHT22;38907;45.562;8.856;2022-12-18T20:42:18;5.40;99.90
51021;DHT22;38907;45.562;8.856;2022-12-18T20:47:21;5.40;99.90
51021;DHT22;38907;45.562;8.856;2022-12-18T20:52:23;5.50;99.90
51021;DHT22;38907;45.562;8.856;2022-12-18T20:57:25;5.60;99.90
51021;DHT22;38907;45.562;8.856;2022-12-18T21:02:29;5.60;99.90
51021;DHT22;38907;45.562;8.856;2022-12-18T21:07:30;5.70;99.90
51021;DHT22;38907;45.562;8.856;2022-12-18T21:12:32;5.80;99.90
51021;DHT22;38907;45.562;8.856;2022-12-18T21:17:37;5.80;99.90
51021;DHT22;38907;45.562;8.856;2022-12-18T21:22:40;5.80;99.90
51021;DHT22;38907;45.562;8.856;2022-12-18T21:27:42;5.80;99.90
51021;DHT22;38907;45.562;8.856;2022-12-18T21:32:45;5.70;99.90
51021;DHT22;38907;45.562;8.856;2022-12-18T21:37:47;5.80;99.90
51021;DHT22;38907;45.562;8.856;2022-12-18T21:42:49;5.90;99.90
51021;DHT22;38907;45.562;8.856;2022-12-18T21:48:18;6.00;99.90
51021;DHT22;38907;45.562;8.856;2022-12-18T21:53:20;6.00;99.90
51021;DHT22;38907;45.562;8.856;2022-12-18T21:58:22;6.00;99.90
51021;DHT22;38907;45.562;8.856;2022-12-18T22:03:25;6.00;99.90
51021;DHT22;38907;45.562;8.856;2022-12-18T22:08:27;6.10;99.90
51021;DHT22;38907;45.562;8.856;2022-12-18T22:13:29;6.20;99.90
51021;DHT22;38907;45.562;8.856;2022-12-18T22:18:32;6.20;99.90
51021;DHT22;38907;45.562;8.856;2022-12-18T22:23:34;6.20;99.90
51021;DHT22;38907;45.562;8.856;2022-12-18T22:28:36;6.10;99.90
51021;DHT22;38907;45.562;8.856;2022-12-18T22:33:56;6.10;99.90
51021;DHT22;38907;45.562;8.856;2022-12-18T22:38:58;6.20;99.90
51021;DHT22;38907;45.562;8.856;2022-12-18T22:44:00;6.20;99.90
51021;DHT22;38907;45.562;8.856;2022-12-18T22:49:04;6.20;99.90
51021;DHT22;38907;45.562;8.856;2022-12-18T22:54:05;6.30;99.90
51021;DHT22;38907;45.562;8.856;2022-12-18T22:59:09;6.20;99.90
51021;DHT22;38907;45.562;8.856;2022-12-18T23:04:16;6.10;99.90
51021;DHT22;38907;45.562;8.856;2022-12-18T23:09:19;6.10;99.90
51021;DHT22;38907;45.562;8.856;2022-12-18T23:14:21;6.10;99.90
51021;DHT22;38907;45.562;8.856;2022-12-18T23:19:24;6.10;99.90
51021;DHT22;38907;45.562;8.856;2022-12-18T23:24:26;6.10;99.90
51021;DHT22;38907;45.562;8.856;2022-12-18T23:29:28;6.10;99.90
51021;DHT22;38907;45.562;8.856;2022-12-18T23:34:31;6.10;99.90
51021;DHT22;38907;45.562;8.856;2022-12-18T23:39:33;6.10;99.90
51021;DHT22;38907;45.562;8.856;2022-12-18T23:44:35;6.10;99.90
51021;DHT22;38907;45.562;8.856;2022-12-18T23:49:38;6.20;99.90
51021;DHT22;38907;45.562;8.856;2022-12-18T23:54:40;6.20;99.90
51021;DHT22;38907;45.562;8.856;2022-12-18T23:59:42;6.00;99.90
